AAL585 KJFK-TBPB
Flight info
| Callsign | AAL585 |
|---|---|
| Flight time | 3h 52m |
| Altitude | 33000 |
| Route | SHIPP Y492 SQUAD/M078F330 DCT DARUX L459 DASER/M078F350 DCT PIREX L462 DAWIN/N0459F350 L462 LAMKN/N0461F360 UL462 ANU/N0462F350 UA632 BGI |
| Aircraft | B738/M-SDE2E3FGHIRWXY/LB1 |
Departure
| Time | 2026-05-09 14:31 |
|---|---|
| Airport | John F. Kennedy International Airport (KJFK) |
Arrival
| Time | 2026-05-09 18:24 |
|---|---|
| Airport | Grantley Adams International Airport (TBPB) |
| Time | Latitude | Longitude | Altitude | Speed | Heading |
|---|---|---|---|---|---|
| 2026-05-09 13:53 | 40.65049 | -73.79083 | 22 ft | 0 kts | 331° |
| 2026-05-09 14:15 | 40.65045 | -73.79081 | 22 ft | 3 kts | 331° |
| 2026-05-09 14:15 | 40.65022 | -73.79064 | 26 ft | 4 kts | 339° |
| 2026-05-09 14:16 | 40.64997 | -73.79058 | 25 ft | 4 kts | 15° |
| 2026-05-09 14:16 | 40.64977 | -73.79075 | 25 ft | 3 kts | 59° |
| 2026-05-09 14:16 | 40.64973 | -73.79085 | 27 ft | 0 kts | 61° |
| 2026-05-09 14:22 | 40.64977 | -73.79074 | 23 ft | 5 kts | 60° |
| 2026-05-09 14:22 | 40.65012 | -73.78990 | 22 ft | 12 kts | 62° |
| 2026-05-09 14:22 | 40.65069 | -73.78917 | 22 ft | 12 kts | 7° |
| 2026-05-09 14:23 | 40.65137 | -73.78878 | 25 ft | 11 kts | 76° |
| 2026-05-09 14:23 | 40.65144 | -73.78775 | 22 ft | 11 kts | 77° |
| 2026-05-09 14:23 | 40.65175 | -73.78684 | 23 ft | 11 kts | 61° |
| 2026-05-09 14:23 | 40.65212 | -73.78598 | 27 ft | 11 kts | 60° |
| 2026-05-09 14:24 | 40.65256 | -73.78496 | 24 ft | 14 kts | 70° |
| 2026-05-09 14:24 | 40.65262 | -73.78378 | 24 ft | 13 kts | 108° |
| 2026-05-09 14:24 | 40.65220 | -73.78275 | 28 ft | 13 kts | 120° |
| 2026-05-09 14:24 | 40.65175 | -73.78178 | 23 ft | 12 kts | 121° |
| 2026-05-09 14:25 | 40.65130 | -73.78083 | 23 ft | 12 kts | 121° |
| 2026-05-09 14:25 | 40.65134 | -73.77991 | 21 ft | 6 kts | 37° |
| 2026-05-09 14:25 | 40.65168 | -73.77961 | 20 ft | 6 kts | 32° |
| 2026-05-09 14:25 | 40.65210 | -73.77928 | 18 ft | 8 kts | 31° |
| 2026-05-09 14:26 | 40.65255 | -73.77897 | 18 ft | 7 kts | 31° |
| 2026-05-09 14:26 | 40.65307 | -73.77854 | 18 ft | 10 kts | 33° |
| 2026-05-09 14:26 | 40.65345 | -73.77802 | 19 ft | 10 kts | 83° |
| 2026-05-09 14:26 | 40.65316 | -73.77726 | 19 ft | 9 kts | 122° |
| 2026-05-09 14:27 | 40.65277 | -73.77641 | 18 ft | 14 kts | 121° |
| 2026-05-09 14:27 | 40.65213 | -73.77500 | 17 ft | 20 kts | 121° |
| 2026-05-09 14:27 | 40.65144 | -73.77347 | 19 ft | 19 kts | 122° |
| 2026-05-09 14:27 | 40.65077 | -73.77199 | 19 ft | 18 kts | 121° |
| 2026-05-09 14:28 | 40.65012 | -73.77057 | 20 ft | 18 kts | 121° |
| 2026-05-09 14:28 | 40.64951 | -73.76918 | 20 ft | 17 kts | 121° |
| 2026-05-09 14:28 | 40.64894 | -73.76795 | 21 ft | 13 kts | 122° |
| 2026-05-09 14:28 | 40.64894 | -73.76688 | 22 ft | 13 kts | 39° |
| 2026-05-09 14:29 | 40.64974 | -73.76625 | 20 ft | 16 kts | 31° |
| 2026-05-09 14:29 | 40.65072 | -73.76548 | 20 ft | 16 kts | 30° |
| 2026-05-09 14:29 | 40.65102 | -73.76470 | 21 ft | 7 kts | 124° |
| 2026-05-09 14:29 | 40.65080 | -73.76413 | 22 ft | 7 kts | 109° |
| 2026-05-09 14:30 | 40.65060 | -73.76356 | 21 ft | 7 kts | 124° |
| 2026-05-09 14:30 | 40.65020 | -73.76356 | 21 ft | 7 kts | 211° |
| 2026-05-09 14:30 | 40.64969 | -73.76394 | 21 ft | 14 kts | 213° |
| 2026-05-09 14:30 | 40.64742 | -73.76575 | 21 ft | 70 kts | 211° |
| 2026-05-09 14:31 | 40.64142 | -73.77044 | 21 ft | 130 kts | 211° |
| 2026-05-09 14:31 | 40.63229 | -73.77749 | 70 ft | 173 kts | 208° |
| 2026-05-09 14:31 | 40.62280 | -73.78523 | 609 ft | 177 kts | 209° |
| 2026-05-09 14:31 | 40.61204 | -73.79335 | 1304 ft | 179 kts | 212° |
| 2026-05-09 14:32 | 40.60034 | -73.80203 | 1617 ft | 205 kts | 212° |
| 2026-05-09 14:32 | 40.58716 | -73.81135 | 1838 ft | 225 kts | 204° |
| 2026-05-09 14:32 | 40.57127 | -73.81354 | 2248 ft | 239 kts | 171° |
| 2026-05-09 14:32 | 40.55621 | -73.80396 | 2772 ft | 249 kts | 140° |
| 2026-05-09 14:33 | 40.54628 | -73.78499 | 3223 ft | 264 kts | 111° |
| 2026-05-09 14:33 | 40.54355 | -73.76056 | 3646 ft | 278 kts | 90° |
| 2026-05-09 14:33 | 40.54271 | -73.73473 | 4274 ft | 285 kts | 106° |
| 2026-05-09 14:33 | 40.53404 | -73.71165 | 5029 ft | 282 kts | 126° |
| 2026-05-09 14:34 | 40.52315 | -73.68970 | 5653 ft | 291 kts | 126° |
| 2026-05-09 14:34 | 40.51226 | -73.66706 | 6344 ft | 296 kts | 126° |
| 2026-05-09 14:34 | 40.50145 | -73.64380 | 6973 ft | 302 kts | 125° |
| 2026-05-09 14:34 | 40.49067 | -73.61995 | 7580 ft | 307 kts | 124° |
| 2026-05-09 14:35 | 40.47987 | -73.59557 | 8263 ft | 310 kts | 124° |
| 2026-05-09 14:35 | 40.46895 | -73.57063 | 8922 ft | 315 kts | 124° |
| 2026-05-09 14:35 | 40.45804 | -73.54552 | 9577 ft | 319 kts | 124° |
| 2026-05-09 14:35 | 40.44700 | -73.51998 | 10187 ft | 324 kts | 124° |
| 2026-05-09 14:36 | 40.43554 | -73.49350 | 10437 ft | 343 kts | 123° |
| 2026-05-09 14:36 | 40.42336 | -73.46536 | 10604 ft | 364 kts | 123° |
| 2026-05-09 14:36 | 40.41072 | -73.43613 | 10760 ft | 383 kts | 123° |
| 2026-05-09 14:36 | 40.39727 | -73.40497 | 10926 ft | 401 kts | 122° |
| 2026-05-09 14:37 | 40.38336 | -73.37271 | 11322 ft | 411 kts | 122° |
| 2026-05-09 14:37 | 40.36919 | -73.33985 | 11856 ft | 416 kts | 122° |
| 2026-05-09 14:37 | 40.35487 | -73.30668 | 12433 ft | 420 kts | 121° |
| 2026-05-09 14:37 | 40.34029 | -73.27305 | 12887 ft | 429 kts | 120° |
| 2026-05-09 14:38 | 40.32529 | -73.23885 | 13358 ft | 435 kts | 121° |
| 2026-05-09 14:38 | 40.30908 | -73.20520 | 13949 ft | 438 kts | 123° |
| 2026-05-09 14:38 | 40.29218 | -73.17190 | 14491 ft | 441 kts | 124° |
| 2026-05-09 14:38 | 40.27514 | -73.13836 | 15068 ft | 443 kts | 124° |
| 2026-05-09 14:39 | 40.25821 | -73.10464 | 15613 ft | 445 kts | 124° |
| 2026-05-09 14:39 | 40.24123 | -73.07056 | 16141 ft | 448 kts | 124° |
| 2026-05-09 14:39 | 40.22414 | -73.03624 | 16670 ft | 451 kts | 124° |
| 2026-05-09 14:39 | 40.20694 | -73.00173 | 17185 ft | 454 kts | 125° |
| 2026-05-09 14:40 | 40.18972 | -72.96724 | 17704 ft | 456 kts | 125° |
| 2026-05-09 14:40 | 40.17233 | -72.93243 | 18213 ft | 459 kts | 126° |
| 2026-05-09 14:40 | 40.15476 | -72.89731 | 18628 ft | 463 kts | 126° |
| 2026-05-09 14:40 | 40.13704 | -72.86191 | 19016 ft | 467 kts | 126° |
| 2026-05-09 14:41 | 40.11921 | -72.82634 | 19396 ft | 470 kts | 126° |
| 2026-05-09 14:41 | 40.10128 | -72.79060 | 19803 ft | 474 kts | 126° |
| 2026-05-09 14:41 | 40.08382 | -72.75395 | 20202 ft | 478 kts | 123° |
| 2026-05-09 14:41 | 40.06689 | -72.71630 | 20573 ft | 482 kts | 122° |
| 2026-05-09 14:42 | 40.05009 | -72.67833 | 20941 ft | 485 kts | 122° |
| 2026-05-09 14:42 | 40.03308 | -72.64010 | 21304 ft | 489 kts | 122° |
| 2026-05-09 14:42 | 40.01605 | -72.60225 | 21634 ft | 492 kts | 123° |
| 2026-05-09 14:42 | 39.99849 | -72.56360 | 21986 ft | 495 kts | 123° |
| 2026-05-09 14:43 | 39.98082 | -72.52488 | 22343 ft | 498 kts | 123° |
| 2026-05-09 14:43 | 39.96305 | -72.48594 | 22683 ft | 502 kts | 123° |
| 2026-05-09 14:43 | 39.94545 | -72.44643 | 23016 ft | 505 kts | 122° |
| 2026-05-09 14:43 | 39.92793 | -72.40646 | 23350 ft | 508 kts | 122° |
| 2026-05-09 14:44 | 39.91040 | -72.36628 | 23668 ft | 511 kts | 122° |
| 2026-05-09 14:44 | 39.89278 | -72.32595 | 23939 ft | 514 kts | 122° |
| 2026-05-09 14:44 | 39.87495 | -72.28532 | 24208 ft | 517 kts | 122° |
| 2026-05-09 14:44 | 39.85703 | -72.24464 | 24483 ft | 520 kts | 123° |
| 2026-05-09 14:45 | 39.83899 | -72.20382 | 24745 ft | 522 kts | 123° |
| 2026-05-09 14:45 | 39.82082 | -72.16279 | 24998 ft | 525 kts | 123° |
| 2026-05-09 14:45 | 39.80255 | -72.12158 | 25251 ft | 527 kts | 123° |
| 2026-05-09 14:45 | 39.78414 | -72.08008 | 25504 ft | 530 kts | 123° |
| 2026-05-09 14:46 | 39.76565 | -72.03845 | 25751 ft | 532 kts | 123° |
| 2026-05-09 14:46 | 39.74714 | -71.99685 | 25990 ft | 535 kts | 123° |
| 2026-05-09 14:46 | 39.72829 | -71.95511 | 26222 ft | 537 kts | 124° |
| 2026-05-09 14:46 | 39.70921 | -71.91395 | 26444 ft | 539 kts | 125° |
| 2026-05-09 14:47 | 39.69006 | -71.87312 | 26624 ft | 542 kts | 125° |
| 2026-05-09 14:47 | 39.67035 | -71.83128 | 26811 ft | 545 kts | 125° |
| 2026-05-09 14:47 | 39.65053 | -71.78911 | 27022 ft | 548 kts | 125° |
| 2026-05-09 14:47 | 39.63078 | -71.74701 | 27252 ft | 549 kts | 125° |
| 2026-05-09 14:48 | 39.61082 | -71.70439 | 27478 ft | 551 kts | 125° |
| 2026-05-09 14:48 | 39.59094 | -71.66193 | 27690 ft | 554 kts | 125° |
| 2026-05-09 14:48 | 39.57095 | -71.61929 | 27940 ft | 555 kts | 125° |
| 2026-05-09 14:48 | 39.55097 | -71.57672 | 28254 ft | 554 kts | 125° |
| 2026-05-09 14:49 | 39.53090 | -71.53401 | 28575 ft | 554 kts | 125° |
| 2026-05-09 14:49 | 39.51090 | -71.49154 | 28813 ft | 555 kts | 125° |
| 2026-05-09 14:49 | 39.49749 | -71.46310 | 28975 ft | 556 kts | 126° |
| 2026-05-09 14:49 | 39.47730 | -71.42033 | 29252 ft | 556 kts | 126° |
| 2026-05-09 14:50 | 39.45691 | -71.37818 | 29535 ft | 554 kts | 130° |
| 2026-05-09 14:50 | 39.43226 | -71.34014 | 29790 ft | 544 kts | 143° |
| 2026-05-09 14:50 | 39.40359 | -71.30904 | 30086 ft | 532 kts | 153° |
| 2026-05-09 14:50 | 39.36192 | -71.27774 | 30360 ft | 513 kts | 168° |
| 2026-05-09 14:51 | 39.33962 | -71.26628 | 30474 ft | 510 kts | 169° |
| 2026-05-09 14:51 | 39.30650 | -71.24984 | 30656 ft | 511 kts | 170° |
| 2026-05-09 14:51 | 39.27328 | -71.23330 | 30892 ft | 512 kts | 169° |
| 2026-05-09 14:51 | 39.24012 | -71.21657 | 31130 ft | 512 kts | 169° |
| 2026-05-09 14:52 | 39.20699 | -71.19964 | 31333 ft | 513 kts | 169° |
| 2026-05-09 14:52 | 39.17382 | -71.18254 | 31553 ft | 513 kts | 169° |
| 2026-05-09 14:52 | 39.14070 | -71.16537 | 31776 ft | 513 kts | 169° |
| 2026-05-09 14:52 | 39.10756 | -71.14815 | 32021 ft | 513 kts | 169° |
| 2026-05-09 14:53 | 39.07444 | -71.13096 | 32235 ft | 513 kts | 169° |
| 2026-05-09 14:53 | 39.04135 | -71.11382 | 32432 ft | 513 kts | 169° |
| 2026-05-09 14:53 | 39.00820 | -71.09667 | 32651 ft | 513 kts | 169° |
| 2026-05-09 14:53 | 38.97509 | -71.07958 | 32867 ft | 513 kts | 170° |
| 2026-05-09 14:54 | 38.94196 | -71.06250 | 33070 ft | 513 kts | 170° |
| 2026-05-09 14:54 | 38.90927 | -71.04566 | 33250 ft | 513 kts | 170° |
| 2026-05-09 14:54 | 38.87614 | -71.02863 | 33461 ft | 512 kts | 170° |
| 2026-05-09 14:54 | 38.84310 | -71.01163 | 33725 ft | 510 kts | 170° |
| 2026-05-09 14:55 | 38.81024 | -70.99475 | 33932 ft | 510 kts | 170° |
| 2026-05-09 14:55 | 38.77730 | -70.97786 | 34125 ft | 509 kts | 170° |
| 2026-05-09 14:55 | 38.74440 | -70.96100 | 34343 ft | 508 kts | 170° |
| 2026-05-09 14:55 | 38.71170 | -70.94424 | 34579 ft | 505 kts | 171° |
| 2026-05-09 14:56 | 38.67908 | -70.92754 | 34779 ft | 504 kts | 171° |
| 2026-05-09 14:56 | 38.64647 | -70.91089 | 34897 ft | 503 kts | 171° |
| 2026-05-09 14:56 | 38.61416 | -70.89440 | 35101 ft | 501 kts | 171° |
| 2026-05-09 14:56 | 38.58162 | -70.87785 | 35063 ft | 504 kts | 171° |
| 2026-05-09 14:57 | 38.51643 | -70.84470 | 35085 ft | 502 kts | 171° |
| 2026-05-09 14:57 | 38.45167 | -70.81175 | 35099 ft | 500 kts | 171° |
| 2026-05-09 14:58 | 38.38721 | -70.77905 | 35090 ft | 497 kts | 171° |
| 2026-05-09 14:58 | 38.32338 | -70.74675 | 35093 ft | 496 kts | 171° |
| 2026-05-09 14:59 | 38.25920 | -70.71435 | 35103 ft | 496 kts | 171° |
| 2026-05-09 14:59 | 38.19497 | -70.68199 | 35110 ft | 497 kts | 171° |
| 2026-05-09 15:00 | 38.13061 | -70.64960 | 35102 ft | 498 kts | 171° |
| 2026-05-09 15:00 | 38.06590 | -70.61708 | 35104 ft | 501 kts | 171° |
| 2026-05-09 15:01 | 37.96875 | -70.56616 | 35113 ft | 513 kts | 167° |
| 2026-05-09 15:02 | 37.90438 | -70.52564 | 35084 ft | 518 kts | 165° |
| 2026-05-09 15:02 | 37.84008 | -70.48422 | 35104 ft | 519 kts | 165° |
| 2026-05-09 15:03 | 37.77548 | -70.44319 | 35118 ft | 520 kts | 166° |
| 2026-05-09 15:03 | 37.71056 | -70.40249 | 35113 ft | 521 kts | 166° |
| 2026-05-09 15:04 | 37.64560 | -70.36196 | 35085 ft | 520 kts | 166° |
| 2026-05-09 15:06 | 37.38653 | -70.20095 | 35109 ft | 519 kts | 167° |
| 2026-05-09 15:06 | 37.32173 | -70.16087 | 35114 ft | 519 kts | 167° |
| 2026-05-09 15:07 | 37.25699 | -70.12091 | 35124 ft | 519 kts | 167° |
| 2026-05-09 15:07 | 37.19201 | -70.08088 | 35126 ft | 520 kts | 167° |
| 2026-05-09 15:08 | 37.12703 | -70.04091 | 35121 ft | 520 kts | 167° |
| 2026-05-09 15:08 | 37.02937 | -69.98100 | 35123 ft | 521 kts | 167° |
| 2026-05-09 15:10 | 36.76816 | -69.82158 | 35116 ft | 524 kts | 167° |
| 2026-05-09 15:11 | 36.70250 | -69.78170 | 35126 ft | 525 kts | 167° |
| 2026-05-09 15:11 | 36.63661 | -69.74175 | 35124 ft | 526 kts | 167° |
| 2026-05-09 15:12 | 36.57069 | -69.70187 | 35126 ft | 527 kts | 167° |
| 2026-05-09 15:12 | 36.50471 | -69.66201 | 35125 ft | 527 kts | 167° |
| 2026-05-09 15:13 | 36.43867 | -69.62219 | 35126 ft | 527 kts | 167° |
| 2026-05-09 15:13 | 36.37304 | -69.58270 | 35105 ft | 527 kts | 168° |
| 2026-05-09 15:14 | 36.30714 | -69.54311 | 35119 ft | 526 kts | 168° |
| 2026-05-09 15:14 | 36.24130 | -69.50365 | 35120 ft | 526 kts | 168° |
| 2026-05-09 15:15 | 36.17545 | -69.46416 | 35126 ft | 527 kts | 166° |
| 2026-05-09 15:15 | 36.14328 | -69.44110 | 35115 ft | 544 kts | 156° |
| 2026-05-09 15:15 | 36.11272 | -69.41279 | 35133 ft | 548 kts | 154° |
| 2026-05-09 15:16 | 36.05268 | -69.35398 | 35132 ft | 551 kts | 153° |
| 2026-05-09 15:16 | 35.99264 | -69.29523 | 35133 ft | 551 kts | 153° |
| 2026-05-09 15:17 | 35.93219 | -69.23718 | 35129 ft | 551 kts | 154° |
| 2026-05-09 15:17 | 35.87156 | -69.17959 | 35119 ft | 551 kts | 154° |
| 2026-05-09 15:18 | 35.81113 | -69.12234 | 35126 ft | 551 kts | 154° |
| 2026-05-09 15:18 | 35.75033 | -69.06479 | 35129 ft | 551 kts | 154° |
| 2026-05-09 15:19 | 35.68944 | -69.00722 | 35138 ft | 552 kts | 154° |
| 2026-05-09 15:19 | 35.62854 | -68.94974 | 35135 ft | 553 kts | 154° |
| 2026-05-09 15:20 | 35.53689 | -68.86346 | 35117 ft | 553 kts | 154° |
| 2026-05-09 15:21 | 35.47580 | -68.80609 | 35124 ft | 553 kts | 154° |
| 2026-05-09 15:21 | 35.41471 | -68.74884 | 35147 ft | 553 kts | 154° |
| 2026-05-09 15:22 | 35.35346 | -68.69155 | 35130 ft | 553 kts | 154° |
| 2026-05-09 15:22 | 35.29220 | -68.63436 | 35132 ft | 553 kts | 154° |
| 2026-05-09 15:23 | 35.23103 | -68.57735 | 35130 ft | 551 kts | 154° |
| 2026-05-09 15:23 | 35.16996 | -68.52056 | 35119 ft | 551 kts | 154° |
| 2026-05-09 15:24 | 35.10936 | -68.46432 | 35129 ft | 550 kts | 154° |
| 2026-05-09 15:24 | 35.04844 | -68.40790 | 35132 ft | 550 kts | 154° |
| 2026-05-09 15:25 | 34.98745 | -68.35151 | 35085 ft | 549 kts | 154° |
| 2026-05-09 15:25 | 34.92670 | -68.29544 | 35117 ft | 547 kts | 154° |
| 2026-05-09 15:26 | 34.83567 | -68.21164 | 35129 ft | 546 kts | 154° |
| 2026-05-09 15:26 | 34.77512 | -68.15603 | 35115 ft | 544 kts | 154° |
| 2026-05-09 15:27 | 34.71472 | -68.10067 | 35121 ft | 543 kts | 154° |
| 2026-05-09 15:27 | 34.65446 | -68.04551 | 35119 ft | 541 kts | 153° |
| 2026-05-09 15:28 | 34.59425 | -67.99054 | 35119 ft | 540 kts | 153° |
| 2026-05-09 15:28 | 34.53422 | -67.93582 | 35124 ft | 539 kts | 153° |
| 2026-05-09 15:29 | 34.47458 | -67.88155 | 35122 ft | 539 kts | 154° |
| 2026-05-09 15:29 | 34.41467 | -67.82715 | 35071 ft | 538 kts | 153° |
| 2026-05-09 15:30 | 34.35486 | -67.77291 | 35105 ft | 536 kts | 153° |
| 2026-05-09 15:30 | 34.29514 | -67.71886 | 35124 ft | 535 kts | 153° |
| 2026-05-09 15:31 | 34.23546 | -67.66496 | 35119 ft | 535 kts | 153° |
| 2026-05-09 15:31 | 34.17588 | -67.61123 | 35123 ft | 534 kts | 153° |
| 2026-05-09 15:32 | 34.11569 | -67.55905 | 35080 ft | 527 kts | 158° |
| 2026-05-09 15:32 | 34.05341 | -67.51359 | 35100 ft | 522 kts | 161° |
| 2026-05-09 15:33 | 33.99065 | -67.46963 | 35112 ft | 521 kts | 160° |
| 2026-05-09 15:33 | 33.92806 | -67.42521 | 35116 ft | 523 kts | 160° |
| 2026-05-09 15:34 | 33.86553 | -67.38021 | 35112 ft | 524 kts | 160° |
| 2026-05-09 15:34 | 33.80305 | -67.33509 | 35116 ft | 524 kts | 160° |
| 2026-05-09 15:35 | 33.74081 | -67.29022 | 35112 ft | 525 kts | 160° |
| 2026-05-09 15:35 | 33.67815 | -67.24518 | 35110 ft | 525 kts | 160° |
| 2026-05-09 15:36 | 33.61534 | -67.20013 | 35100 ft | 526 kts | 160° |
| 2026-05-09 15:36 | 33.55256 | -67.15518 | 35082 ft | 525 kts | 159° |
| 2026-05-09 15:37 | 33.50036 | -67.11786 | 35096 ft | 525 kts | 159° |
| 2026-05-09 15:37 | 33.43771 | -67.07314 | 35104 ft | 524 kts | 159° |
| 2026-05-09 15:38 | 33.37506 | -67.02850 | 35105 ft | 523 kts | 159° |
| 2026-05-09 15:38 | 33.31251 | -66.98401 | 35101 ft | 523 kts | 159° |
| 2026-05-09 15:39 | 33.25007 | -66.93966 | 35092 ft | 521 kts | 159° |
| 2026-05-09 15:39 | 33.18775 | -66.89547 | 35091 ft | 520 kts | 159° |
| 2026-05-09 15:40 | 33.12549 | -66.85142 | 35096 ft | 519 kts | 159° |
| 2026-05-09 15:40 | 33.06345 | -66.80759 | 35098 ft | 518 kts | 159° |
| 2026-05-09 15:41 | 33.00144 | -66.76385 | 35095 ft | 518 kts | 159° |
| 2026-05-09 15:41 | 32.93952 | -66.72024 | 35094 ft | 516 kts | 158° |
| 2026-05-09 15:42 | 32.87766 | -66.67675 | 35094 ft | 516 kts | 158° |
| 2026-05-09 15:42 | 32.81581 | -66.63335 | 35094 ft | 516 kts | 158° |
| 2026-05-09 15:43 | 32.75431 | -66.59025 | 35093 ft | 516 kts | 159° |
| 2026-05-09 15:43 | 32.69222 | -66.54682 | 35069 ft | 516 kts | 158° |
| 2026-05-09 15:44 | 32.63086 | -66.50395 | 35080 ft | 516 kts | 158° |
| 2026-05-09 15:44 | 32.56888 | -66.46073 | 35089 ft | 516 kts | 158° |
| 2026-05-09 15:45 | 32.50705 | -66.41769 | 35089 ft | 516 kts | 158° |
| 2026-05-09 15:45 | 32.44501 | -66.37457 | 35092 ft | 517 kts | 158° |
| 2026-05-09 15:46 | 32.38303 | -66.33155 | 35083 ft | 516 kts | 157° |
| 2026-05-09 15:46 | 32.32122 | -66.28872 | 35081 ft | 516 kts | 157° |
| 2026-05-09 15:47 | 32.25913 | -66.24576 | 35085 ft | 515 kts | 157° |
| 2026-05-09 15:47 | 32.19722 | -66.20301 | 35086 ft | 515 kts | 157° |
| 2026-05-09 15:48 | 32.13554 | -66.16048 | 35088 ft | 515 kts | 157° |
| 2026-05-09 15:48 | 32.07371 | -66.11790 | 35081 ft | 515 kts | 156° |
| 2026-05-09 15:49 | 32.01148 | -66.07512 | 35081 ft | 515 kts | 156° |
| 2026-05-09 15:49 | 31.95002 | -66.03295 | 35081 ft | 514 kts | 157° |
| 2026-05-09 15:50 | 31.88824 | -65.99062 | 35080 ft | 515 kts | 157° |
| 2026-05-09 15:50 | 31.82624 | -65.94821 | 35067 ft | 515 kts | 156° |
| 2026-05-09 15:51 | 31.76429 | -65.90589 | 35064 ft | 515 kts | 156° |
| 2026-05-09 15:51 | 31.70235 | -65.86364 | 35082 ft | 515 kts | 156° |
| 2026-05-09 15:52 | 31.60929 | -65.80030 | 35081 ft | 516 kts | 156° |
| 2026-05-09 15:53 | 31.54718 | -65.75811 | 35043 ft | 516 kts | 156° |
| 2026-05-09 15:53 | 31.48499 | -65.71592 | 35067 ft | 516 kts | 156° |
| 2026-05-09 15:54 | 31.42290 | -65.67386 | 35071 ft | 516 kts | 156° |
| 2026-05-09 15:54 | 31.36113 | -65.63209 | 35077 ft | 515 kts | 156° |
| 2026-05-09 15:55 | 31.29902 | -65.59015 | 35067 ft | 515 kts | 156° |
| 2026-05-09 15:55 | 31.23694 | -65.54830 | 35049 ft | 514 kts | 155° |
| 2026-05-09 15:56 | 31.17504 | -65.50663 | 35067 ft | 513 kts | 155° |
| 2026-05-09 15:56 | 31.11314 | -65.46503 | 35073 ft | 513 kts | 156° |
| 2026-05-09 15:57 | 31.05126 | -65.42351 | 35077 ft | 512 kts | 156° |
| 2026-05-09 15:57 | 30.98944 | -65.38209 | 35079 ft | 512 kts | 156° |
| 2026-05-09 15:58 | 30.92763 | -65.34074 | 35079 ft | 512 kts | 156° |
| 2026-05-09 15:58 | 30.86621 | -65.29971 | 35082 ft | 511 kts | 156° |
| 2026-05-09 15:59 | 30.80439 | -65.25847 | 35079 ft | 512 kts | 156° |
| 2026-05-09 15:59 | 30.74254 | -65.21728 | 35085 ft | 512 kts | 156° |
| 2026-05-09 16:00 | 30.68060 | -65.17609 | 35086 ft | 513 kts | 156° |
| 2026-05-09 16:00 | 30.61870 | -65.13499 | 35079 ft | 512 kts | 155° |
| 2026-05-09 16:01 | 30.55680 | -65.09394 | 35080 ft | 512 kts | 155° |
| 2026-05-09 16:01 | 30.49518 | -65.05314 | 35087 ft | 512 kts | 155° |
| 2026-05-09 16:02 | 30.43322 | -65.01218 | 35087 ft | 512 kts | 155° |
| 2026-05-09 16:02 | 30.34029 | -64.95085 | 35073 ft | 512 kts | 155° |
| 2026-05-09 16:03 | 30.27836 | -64.91006 | 35082 ft | 511 kts | 155° |
| 2026-05-09 16:03 | 30.21655 | -64.86941 | 35088 ft | 511 kts | 155° |
| 2026-05-09 16:04 | 30.15473 | -64.82880 | 35091 ft | 511 kts | 155° |
| 2026-05-09 16:04 | 30.09335 | -64.78855 | 35086 ft | 511 kts | 155° |
| 2026-05-09 16:05 | 30.03156 | -64.74809 | 35086 ft | 510 kts | 155° |
| 2026-05-09 16:05 | 29.96986 | -64.70774 | 35086 ft | 510 kts | 155° |
| 2026-05-09 16:06 | 29.90810 | -64.66741 | 35091 ft | 509 kts | 155° |
| 2026-05-09 16:06 | 29.84641 | -64.62719 | 35093 ft | 509 kts | 155° |
| 2026-05-09 16:07 | 29.78468 | -64.58700 | 35092 ft | 509 kts | 155° |
| 2026-05-09 16:07 | 29.72298 | -64.54688 | 35086 ft | 509 kts | 155° |
| 2026-05-09 16:08 | 29.66125 | -64.50680 | 35092 ft | 509 kts | 155° |
| 2026-05-09 16:08 | 29.59991 | -64.46703 | 35097 ft | 509 kts | 155° |
| 2026-05-09 16:09 | 29.53818 | -64.42706 | 35102 ft | 509 kts | 155° |
| 2026-05-09 16:09 | 29.47641 | -64.38711 | 35094 ft | 510 kts | 155° |
| 2026-05-09 16:10 | 29.41456 | -64.34717 | 35084 ft | 510 kts | 155° |
| 2026-05-09 16:10 | 29.35045 | -64.31458 | 35097 ft | 498 kts | 171° |
| 2026-05-09 16:11 | 29.28304 | -64.29895 | 35099 ft | 494 kts | 176° |
| 2026-05-09 16:11 | 29.21544 | -64.28454 | 35106 ft | 495 kts | 175° |
| 2026-05-09 16:12 | 29.14775 | -64.26961 | 35093 ft | 495 kts | 175° |
| 2026-05-09 16:12 | 29.08003 | -64.25431 | 35096 ft | 496 kts | 174° |
| 2026-05-09 16:13 | 29.01223 | -64.23890 | 35102 ft | 497 kts | 174° |
| 2026-05-09 16:13 | 28.94431 | -64.22350 | 35100 ft | 498 kts | 174° |
| 2026-05-09 16:14 | 28.87625 | -64.20812 | 35089 ft | 499 kts | 174° |
| 2026-05-09 16:14 | 28.80852 | -64.19282 | 35065 ft | 494 kts | 175° |
| 2026-05-09 16:15 | 28.74154 | -64.17771 | 35111 ft | 494 kts | 175° |
| 2026-05-09 16:15 | 28.67399 | -64.16254 | 35125 ft | 495 kts | 175° |
| 2026-05-09 16:16 | 28.60633 | -64.14735 | 35111 ft | 497 kts | 174° |
| 2026-05-09 16:16 | 28.53837 | -64.13209 | 35129 ft | 498 kts | 174° |
| 2026-05-09 16:17 | 28.47026 | -64.11683 | 35123 ft | 499 kts | 174° |
| 2026-05-09 16:17 | 28.40199 | -64.10154 | 35122 ft | 499 kts | 174° |
| 2026-05-09 16:18 | 28.33425 | -64.08639 | 35115 ft | 500 kts | 174° |
| 2026-05-09 16:18 | 28.26601 | -64.07115 | 35125 ft | 499 kts | 174° |
| 2026-05-09 16:19 | 28.19791 | -64.05596 | 35129 ft | 499 kts | 174° |
| 2026-05-09 16:19 | 28.12968 | -64.04077 | 35127 ft | 498 kts | 174° |
| 2026-05-09 16:20 | 28.06167 | -64.02565 | 35129 ft | 498 kts | 174° |
| 2026-05-09 16:20 | 27.99368 | -64.01054 | 35127 ft | 498 kts | 174° |
| 2026-05-09 16:21 | 27.92570 | -63.99546 | 35131 ft | 497 kts | 174° |
| 2026-05-09 16:21 | 27.85789 | -63.98044 | 35134 ft | 497 kts | 174° |
| 2026-05-09 16:22 | 27.78993 | -63.96540 | 35118 ft | 496 kts | 174° |
| 2026-05-09 16:22 | 27.72215 | -63.95042 | 35129 ft | 496 kts | 174° |
| 2026-05-09 16:23 | 27.65507 | -63.93562 | 35137 ft | 496 kts | 174° |
| 2026-05-09 16:23 | 27.58732 | -63.92069 | 35137 ft | 496 kts | 174° |
| 2026-05-09 16:24 | 27.51955 | -63.90577 | 35138 ft | 497 kts | 174° |
| 2026-05-09 16:24 | 27.46270 | -63.89327 | 35134 ft | 497 kts | 174° |
| 2026-05-09 16:25 | 27.39521 | -63.87845 | 35147 ft | 497 kts | 174° |
| 2026-05-09 16:25 | 27.32677 | -63.86343 | 35143 ft | 498 kts | 174° |
| 2026-05-09 16:26 | 27.25910 | -63.84861 | 35146 ft | 499 kts | 174° |
| 2026-05-09 16:26 | 27.19095 | -63.83370 | 35136 ft | 499 kts | 174° |
| 2026-05-09 16:27 | 27.12271 | -63.81878 | 35146 ft | 500 kts | 174° |
| 2026-05-09 16:27 | 27.05434 | -63.80386 | 35147 ft | 500 kts | 174° |
| 2026-05-09 16:28 | 26.98588 | -63.78893 | 35153 ft | 501 kts | 174° |
| 2026-05-09 16:28 | 26.91741 | -63.77402 | 35137 ft | 501 kts | 173° |
| 2026-05-09 16:29 | 26.84887 | -63.75910 | 35152 ft | 502 kts | 173° |
| 2026-05-09 16:29 | 26.78036 | -63.74423 | 35149 ft | 502 kts | 173° |
| 2026-05-09 16:30 | 26.71167 | -63.72937 | 35150 ft | 502 kts | 173° |
| 2026-05-09 16:30 | 26.64348 | -63.71463 | 35144 ft | 503 kts | 173° |
| 2026-05-09 16:31 | 26.57473 | -63.69978 | 35152 ft | 503 kts | 173° |
| 2026-05-09 16:31 | 26.50597 | -63.68494 | 35153 ft | 503 kts | 173° |
| 2026-05-09 16:32 | 26.44893 | -63.67265 | 35155 ft | 503 kts | 173° |
| 2026-05-09 16:32 | 26.36854 | -63.65535 | 35138 ft | 503 kts | 173° |
| 2026-05-09 16:33 | 26.29981 | -63.64057 | 35152 ft | 503 kts | 173° |
| 2026-05-09 16:33 | 26.23154 | -63.62591 | 35156 ft | 502 kts | 173° |
| 2026-05-09 16:34 | 26.16286 | -63.61118 | 35156 ft | 502 kts | 173° |
| 2026-05-09 16:34 | 26.09423 | -63.59648 | 35155 ft | 502 kts | 173° |
| 2026-05-09 16:35 | 26.02557 | -63.58179 | 35149 ft | 502 kts | 173° |
| 2026-05-09 16:35 | 25.95691 | -63.56712 | 35153 ft | 502 kts | 173° |
| 2026-05-09 16:36 | 25.81975 | -63.53786 | 35155 ft | 502 kts | 173° |
| 2026-05-09 16:37 | 25.75115 | -63.52326 | 35155 ft | 501 kts | 172° |
| 2026-05-09 16:37 | 25.68267 | -63.50869 | 35155 ft | 501 kts | 172° |
| 2026-05-09 16:38 | 25.61416 | -63.49414 | 35154 ft | 501 kts | 172° |
| 2026-05-09 16:38 | 25.54570 | -63.47961 | 35155 ft | 501 kts | 172° |
| 2026-05-09 16:39 | 25.47769 | -63.46519 | 35145 ft | 500 kts | 173° |
| 2026-05-09 16:39 | 25.40940 | -63.45074 | 35147 ft | 499 kts | 173° |
| 2026-05-09 16:40 | 25.34126 | -63.43633 | 35150 ft | 498 kts | 173° |
| 2026-05-09 16:42 | 25.07079 | -63.37930 | 35157 ft | 493 kts | 172° |
| 2026-05-09 16:42 | 25.00340 | -63.36513 | 35157 ft | 493 kts | 172° |
| 2026-05-09 16:43 | 24.93595 | -63.35097 | 35159 ft | 493 kts | 172° |
| 2026-05-09 16:43 | 24.86852 | -63.33682 | 35152 ft | 493 kts | 172° |
| 2026-05-09 16:44 | 24.80105 | -63.32269 | 35159 ft | 494 kts | 172° |
| 2026-05-09 16:44 | 24.73358 | -63.30857 | 35154 ft | 494 kts | 172° |
| 2026-05-09 16:45 | 24.66589 | -63.29441 | 35157 ft | 495 kts | 172° |
| 2026-05-09 16:45 | 24.59812 | -63.28026 | 35149 ft | 496 kts | 172° |
| 2026-05-09 16:46 | 24.53029 | -63.26610 | 35161 ft | 496 kts | 172° |
| 2026-05-09 16:46 | 24.46247 | -63.25197 | 35153 ft | 496 kts | 172° |
| 2026-05-09 16:47 | 24.39455 | -63.23783 | 35152 ft | 497 kts | 172° |
| 2026-05-09 16:47 | 24.32658 | -63.22369 | 35150 ft | 497 kts | 172° |
| 2026-05-09 16:48 | 24.25870 | -63.20959 | 35156 ft | 496 kts | 172° |
| 2026-05-09 16:48 | 24.19122 | -63.19559 | 35160 ft | 496 kts | 172° |
| 2026-05-09 16:49 | 24.12342 | -63.18154 | 35151 ft | 496 kts | 172° |
| 2026-05-09 16:50 | 24.02176 | -63.16049 | 35154 ft | 495 kts | 172° |
| 2026-05-09 16:50 | 23.95407 | -63.14650 | 35150 ft | 494 kts | 172° |
| 2026-05-09 16:51 | 23.88650 | -63.13255 | 35152 ft | 494 kts | 172° |
| 2026-05-09 16:51 | 23.81895 | -63.11861 | 35156 ft | 493 kts | 172° |
| 2026-05-09 16:52 | 23.75153 | -63.10472 | 35156 ft | 493 kts | 172° |
| 2026-05-09 16:52 | 23.68411 | -63.09084 | 35154 ft | 493 kts | 172° |
| 2026-05-09 16:53 | 23.61676 | -63.07699 | 35154 ft | 492 kts | 172° |
| 2026-05-09 16:53 | 23.54985 | -63.06324 | 35155 ft | 492 kts | 172° |
| 2026-05-09 16:54 | 23.48256 | -63.04943 | 35152 ft | 492 kts | 172° |
| 2026-05-09 16:54 | 23.41529 | -63.03562 | 35148 ft | 492 kts | 172° |
| 2026-05-09 16:55 | 23.34793 | -63.02179 | 35154 ft | 492 kts | 172° |
| 2026-05-09 16:55 | 23.28065 | -63.00799 | 35152 ft | 492 kts | 172° |
| 2026-05-09 16:56 | 23.21333 | -62.99420 | 35150 ft | 492 kts | 172° |
| 2026-05-09 16:56 | 23.14639 | -62.98050 | 35140 ft | 493 kts | 172° |
| 2026-05-09 16:57 | 23.07900 | -62.96672 | 35148 ft | 493 kts | 172° |
| 2026-05-09 16:57 | 23.01162 | -62.95296 | 35148 ft | 493 kts | 172° |
| 2026-05-09 16:58 | 22.94418 | -62.93920 | 35150 ft | 493 kts | 172° |
| 2026-05-09 16:58 | 22.87678 | -62.92546 | 35143 ft | 493 kts | 172° |
| 2026-05-09 16:59 | 22.80926 | -62.91171 | 35146 ft | 493 kts | 171° |
| 2026-05-09 16:59 | 22.74187 | -62.89800 | 35142 ft | 493 kts | 171° |
| 2026-05-09 17:00 | 22.67453 | -62.88431 | 35143 ft | 492 kts | 171° |
| 2026-05-09 17:00 | 22.60720 | -62.87065 | 35149 ft | 492 kts | 171° |
| 2026-05-09 17:01 | 22.53986 | -62.85699 | 35140 ft | 492 kts | 171° |
| 2026-05-09 17:01 | 22.47260 | -62.84336 | 35140 ft | 491 kts | 171° |
| 2026-05-09 17:02 | 22.40583 | -62.82984 | 35141 ft | 491 kts | 171° |
| 2026-05-09 17:02 | 22.33868 | -62.81626 | 35139 ft | 491 kts | 171° |
| 2026-05-09 17:03 | 22.27134 | -62.80266 | 35141 ft | 491 kts | 171° |
| 2026-05-09 17:05 | 22.00210 | -62.74840 | 35135 ft | 492 kts | 171° |
| 2026-05-09 17:05 | 21.93516 | -62.73495 | 35131 ft | 493 kts | 171° |
| 2026-05-09 17:06 | 21.86764 | -62.72139 | 35137 ft | 493 kts | 171° |
| 2026-05-09 17:06 | 21.80019 | -62.70785 | 35127 ft | 493 kts | 171° |
| 2026-05-09 17:07 | 21.73276 | -62.69433 | 35131 ft | 493 kts | 171° |
| 2026-05-09 17:07 | 21.66538 | -62.68083 | 35130 ft | 493 kts | 171° |
| 2026-05-09 17:08 | 21.59835 | -62.66743 | 35126 ft | 492 kts | 171° |
| 2026-05-09 17:08 | 21.49727 | -62.64722 | 35128 ft | 492 kts | 171° |
| 2026-05-09 17:09 | 21.42998 | -62.63378 | 35129 ft | 491 kts | 171° |
| 2026-05-09 17:09 | 21.36273 | -62.62038 | 35128 ft | 491 kts | 171° |
| 2026-05-09 17:10 | 21.29558 | -62.60709 | 35126 ft | 491 kts | 170° |
| 2026-05-09 17:10 | 21.22843 | -62.59381 | 35124 ft | 490 kts | 170° |
| 2026-05-09 17:11 | 21.16180 | -62.58064 | 35123 ft | 490 kts | 170° |
| 2026-05-09 17:11 | 21.09480 | -62.56740 | 35120 ft | 490 kts | 170° |
| 2026-05-09 17:12 | 21.02782 | -62.55417 | 35119 ft | 489 kts | 170° |
| 2026-05-09 17:12 | 20.96063 | -62.54092 | 35271 ft | 492 kts | 170° |
| 2026-05-09 17:13 | 20.93789 | -62.53643 | 35404 ft | 491 kts | 170° |
| 2026-05-09 17:13 | 20.90469 | -62.52989 | 35603 ft | 491 kts | 170° |
| 2026-05-09 17:13 | 20.87107 | -62.52327 | 35781 ft | 491 kts | 170° |
| 2026-05-09 17:13 | 20.83745 | -62.51665 | 35869 ft | 493 kts | 170° |
| 2026-05-09 17:14 | 20.80368 | -62.51000 | 35986 ft | 494 kts | 170° |
| 2026-05-09 17:14 | 20.76996 | -62.50337 | 36160 ft | 493 kts | 170° |
| 2026-05-09 17:14 | 20.73619 | -62.49673 | 36314 ft | 493 kts | 170° |
| 2026-05-09 17:14 | 20.70228 | -62.49006 | 36433 ft | 494 kts | 170° |
| 2026-05-09 17:15 | 20.66845 | -62.48341 | 36573 ft | 495 kts | 170° |
| 2026-05-09 17:15 | 20.63456 | -62.47676 | 36720 ft | 495 kts | 170° |
| 2026-05-09 17:15 | 20.60080 | -62.47013 | 36868 ft | 495 kts | 170° |
| 2026-05-09 17:15 | 20.56693 | -62.46348 | 36991 ft | 495 kts | 170° |
| 2026-05-09 17:17 | 20.29523 | -62.41014 | 37104 ft | 497 kts | 170° |
| 2026-05-09 17:18 | 20.22771 | -62.39691 | 37098 ft | 496 kts | 170° |
| 2026-05-09 17:18 | 20.15983 | -62.38361 | 37108 ft | 496 kts | 170° |
| 2026-05-09 17:19 | 20.09200 | -62.37034 | 37102 ft | 495 kts | 169° |
| 2026-05-09 17:19 | 20.02410 | -62.35707 | 37099 ft | 495 kts | 169° |
| 2026-05-09 17:20 | 19.95671 | -62.34390 | 37100 ft | 495 kts | 169° |
| 2026-05-09 17:20 | 19.88892 | -62.33067 | 37096 ft | 495 kts | 169° |
| 2026-05-09 17:21 | 19.82115 | -62.31746 | 37099 ft | 495 kts | 169° |
| 2026-05-09 17:21 | 19.75340 | -62.30426 | 37097 ft | 495 kts | 169° |
| 2026-05-09 17:22 | 19.68574 | -62.29108 | 37096 ft | 495 kts | 169° |
| 2026-05-09 17:22 | 19.61792 | -62.27789 | 37092 ft | 495 kts | 169° |
| 2026-05-09 17:23 | 19.55005 | -62.26471 | 37092 ft | 496 kts | 169° |
| 2026-05-09 17:23 | 19.48213 | -62.25152 | 37087 ft | 496 kts | 169° |
| 2026-05-09 17:25 | 19.27856 | -62.21206 | 37097 ft | 498 kts | 169° |
| 2026-05-09 17:25 | 19.21037 | -62.19886 | 37091 ft | 498 kts | 169° |
| 2026-05-09 17:26 | 19.14215 | -62.18567 | 37086 ft | 498 kts | 169° |
| 2026-05-09 17:26 | 19.07389 | -62.17248 | 37082 ft | 499 kts | 169° |
| 2026-05-09 17:27 | 19.00562 | -62.15930 | 37095 ft | 499 kts | 169° |
| 2026-05-09 17:27 | 18.94134 | -62.14690 | 37085 ft | 499 kts | 169° |
| 2026-05-09 17:28 | 18.88603 | -62.13622 | 37093 ft | 499 kts | 169° |
| 2026-05-09 17:28 | 18.81710 | -62.12292 | 37075 ft | 498 kts | 169° |
| 2026-05-09 17:29 | 18.74888 | -62.10976 | 37077 ft | 498 kts | 169° |
| 2026-05-09 17:29 | 18.68078 | -62.09663 | 37082 ft | 498 kts | 169° |
| 2026-05-09 17:30 | 18.61256 | -62.08350 | 37076 ft | 498 kts | 169° |
| 2026-05-09 17:30 | 18.54462 | -62.07043 | 37074 ft | 498 kts | 169° |
| 2026-05-09 17:31 | 18.47648 | -62.05733 | 37078 ft | 498 kts | 169° |
| 2026-05-09 17:32 | 18.30689 | -62.02477 | 37069 ft | 498 kts | 169° |
| 2026-05-09 17:33 | 18.23904 | -62.01176 | 37072 ft | 498 kts | 168° |
| 2026-05-09 17:33 | 18.17110 | -61.99874 | 37068 ft | 498 kts | 168° |
| 2026-05-09 17:34 | 18.10285 | -61.98568 | 37075 ft | 498 kts | 168° |
| 2026-05-09 17:35 | 17.86663 | -61.94058 | 37057 ft | 499 kts | 168° |
| 2026-05-09 17:36 | 17.79830 | -61.92757 | 37059 ft | 499 kts | 168° |
| 2026-05-09 17:36 | 17.72988 | -61.91454 | 37055 ft | 500 kts | 168° |
| 2026-05-09 17:37 | 17.66740 | -61.90266 | 37067 ft | 500 kts | 168° |
| 2026-05-09 17:37 | 17.59986 | -61.88982 | 37070 ft | 500 kts | 168° |
| 2026-05-09 17:38 | 17.53140 | -61.87681 | 37063 ft | 500 kts | 168° |
| 2026-05-09 17:39 | 17.43228 | -61.85801 | 37063 ft | 500 kts | 168° |
| 2026-05-09 17:39 | 17.36376 | -61.84501 | 37058 ft | 500 kts | 168° |
| 2026-05-09 17:40 | 17.29527 | -61.83204 | 37063 ft | 500 kts | 168° |
| 2026-05-09 17:40 | 17.22696 | -61.81910 | 37072 ft | 500 kts | 168° |
| 2026-05-09 17:41 | 17.15857 | -61.80613 | 37070 ft | 499 kts | 166° |
| 2026-05-09 17:41 | 17.09399 | -61.78304 | 37078 ft | 492 kts | 148° |
| 2026-05-09 17:42 | 17.03416 | -61.74766 | 37077 ft | 490 kts | 147° |
| 2026-05-09 17:42 | 16.97497 | -61.71216 | 37064 ft | 490 kts | 147° |
| 2026-05-09 17:43 | 16.91591 | -61.67730 | 37067 ft | 490 kts | 147° |
| 2026-05-09 17:43 | 16.86034 | -61.64484 | 37034 ft | 490 kts | 147° |
| 2026-05-09 17:44 | 16.80339 | -61.61169 | 37041 ft | 490 kts | 147° |
| 2026-05-09 17:44 | 16.74391 | -61.57708 | 37042 ft | 490 kts | 147° |
| 2026-05-09 17:45 | 16.68438 | -61.54245 | 37041 ft | 489 kts | 147° |
| 2026-05-09 17:45 | 16.62497 | -61.50789 | 37037 ft | 489 kts | 147° |
| 2026-05-09 17:46 | 16.56574 | -61.47347 | 37024 ft | 489 kts | 147° |
| 2026-05-09 17:46 | 16.50628 | -61.43893 | 37032 ft | 489 kts | 147° |
| 2026-05-09 17:47 | 16.44705 | -61.40456 | 37032 ft | 489 kts | 147° |
| 2026-05-09 17:47 | 16.38800 | -61.37032 | 37013 ft | 489 kts | 147° |
| 2026-05-09 17:48 | 16.32857 | -61.33587 | 37026 ft | 488 kts | 147° |
| 2026-05-09 17:48 | 16.26924 | -61.30151 | 37030 ft | 488 kts | 147° |
| 2026-05-09 17:49 | 16.20994 | -61.26720 | 37024 ft | 488 kts | 147° |
| 2026-05-09 17:49 | 16.15073 | -61.23295 | 37040 ft | 487 kts | 147° |
| 2026-05-09 17:50 | 16.09152 | -61.19873 | 37026 ft | 486 kts | 147° |
| 2026-05-09 17:50 | 16.01294 | -61.15336 | 37030 ft | 485 kts | 147° |
| 2026-05-09 17:51 | 15.94394 | -61.11355 | 37028 ft | 485 kts | 147° |
| 2026-05-09 17:51 | 15.88493 | -61.07953 | 37023 ft | 485 kts | 147° |
| 2026-05-09 17:52 | 15.82632 | -61.04575 | 37024 ft | 484 kts | 147° |
| 2026-05-09 17:52 | 15.76724 | -61.01173 | 37035 ft | 485 kts | 147° |
| 2026-05-09 17:53 | 15.70824 | -60.97779 | 37034 ft | 485 kts | 147° |
| 2026-05-09 17:53 | 15.64913 | -60.94380 | 37024 ft | 485 kts | 147° |
| 2026-05-09 17:54 | 15.59044 | -60.91007 | 37026 ft | 485 kts | 147° |
| 2026-05-09 17:54 | 15.53136 | -60.87615 | 37020 ft | 485 kts | 147° |
| 2026-05-09 17:55 | 15.47234 | -60.84228 | 37017 ft | 485 kts | 147° |
| 2026-05-09 17:55 | 15.41331 | -60.80843 | 37024 ft | 485 kts | 147° |
| 2026-05-09 17:56 | 15.35426 | -60.77459 | 37019 ft | 484 kts | 147° |
| 2026-05-09 17:57 | 15.26603 | -60.72406 | 37027 ft | 484 kts | 148° |
| 2026-05-09 17:57 | 15.20705 | -60.69031 | 37020 ft | 484 kts | 148° |
| 2026-05-09 17:58 | 15.14904 | -60.65715 | 37021 ft | 484 kts | 148° |
| 2026-05-09 17:58 | 15.09073 | -60.62382 | 36753 ft | 488 kts | 148° |
| 2026-05-09 17:58 | 15.06087 | -60.60675 | 36204 ft | 490 kts | 148° |
| 2026-05-09 17:59 | 15.03114 | -60.58977 | 35625 ft | 489 kts | 148° |
| 2026-05-09 17:59 | 15.00135 | -60.57277 | 35004 ft | 489 kts | 147° |
| 2026-05-09 17:59 | 14.98175 | -60.56159 | 34568 ft | 490 kts | 147° |
| 2026-05-09 17:59 | 14.95177 | -60.54448 | 33879 ft | 492 kts | 147° |
| 2026-05-09 18:00 | 14.92173 | -60.52734 | 33124 ft | 493 kts | 148° |
| 2026-05-09 18:00 | 14.89921 | -60.51450 | 32599 ft | 494 kts | 148° |
| 2026-05-09 18:00 | 14.87459 | -60.50047 | 32025 ft | 494 kts | 148° |
| 2026-05-09 18:00 | 14.84774 | -60.48517 | 31418 ft | 494 kts | 148° |
| 2026-05-09 18:01 | 14.81771 | -60.46806 | 30935 ft | 490 kts | 149° |
| 2026-05-09 18:01 | 14.78844 | -60.45140 | 30433 ft | 486 kts | 149° |
| 2026-05-09 18:01 | 14.75891 | -60.43459 | 30240 ft | 481 kts | 149° |
| 2026-05-09 18:01 | 14.73000 | -60.41814 | 30125 ft | 468 kts | 149° |
| 2026-05-09 18:02 | 14.70187 | -60.40214 | 30102 ft | 453 kts | 149° |
| 2026-05-09 18:02 | 14.67702 | -60.38801 | 30079 ft | 440 kts | 149° |
| 2026-05-09 18:02 | 14.65070 | -60.37330 | 30088 ft | 427 kts | 151° |
| 2026-05-09 18:02 | 14.62432 | -60.36080 | 30088 ft | 415 kts | 154° |
| 2026-05-09 18:03 | 14.59822 | -60.34948 | 30082 ft | 402 kts | 155° |
| 2026-05-09 18:03 | 14.57262 | -60.33872 | 30080 ft | 390 kts | 155° |
| 2026-05-09 18:03 | 14.54820 | -60.32849 | 30084 ft | 377 kts | 155° |
| 2026-05-09 18:04 | 14.50065 | -60.30828 | 30116 ft | 374 kts | 154° |
| 2026-05-09 18:04 | 14.45179 | -60.28716 | 30126 ft | 391 kts | 154° |
| 2026-05-09 18:05 | 14.40134 | -60.26528 | 30098 ft | 392 kts | 154° |
| 2026-05-09 18:05 | 14.35151 | -60.24368 | 29992 ft | 386 kts | 154° |
| 2026-05-09 18:05 | 14.32696 | -60.23303 | 29647 ft | 383 kts | 154° |
| 2026-05-09 18:06 | 14.30240 | -60.22238 | 29185 ft | 384 kts | 154° |
| 2026-05-09 18:06 | 14.27771 | -60.21166 | 28684 ft | 385 kts | 154° |
| 2026-05-09 18:06 | 14.25291 | -60.20090 | 28036 ft | 390 kts | 154° |
| 2026-05-09 18:06 | 14.22735 | -60.18977 | 26819 ft | 411 kts | 154° |
| 2026-05-09 18:07 | 14.20012 | -60.17791 | 25479 ft | 436 kts | 154° |
| 2026-05-09 18:07 | 14.17215 | -60.16576 | 24535 ft | 449 kts | 154° |
| 2026-05-09 18:07 | 14.14356 | -60.15338 | 23999 ft | 449 kts | 154° |
| 2026-05-09 18:07 | 14.11519 | -60.14114 | 23660 ft | 442 kts | 154° |
| 2026-05-09 18:08 | 14.08706 | -60.12900 | 23239 ft | 437 kts | 154° |
| 2026-05-09 18:08 | 14.05933 | -60.11703 | 22731 ft | 434 kts | 154° |
| 2026-05-09 18:08 | 14.03257 | -60.10546 | 22228 ft | 431 kts | 154° |
| 2026-05-09 18:08 | 14.00546 | -60.09374 | 21739 ft | 428 kts | 154° |
| 2026-05-09 18:09 | 13.97805 | -60.08188 | 21272 ft | 425 kts | 154° |
| 2026-05-09 18:09 | 13.95094 | -60.07016 | 20817 ft | 421 kts | 154° |
| 2026-05-09 18:09 | 13.92396 | -60.05849 | 20345 ft | 419 kts | 154° |
| 2026-05-09 18:09 | 13.89726 | -60.04695 | 19891 ft | 416 kts | 154° |
| 2026-05-09 18:10 | 13.87061 | -60.03543 | 19448 ft | 413 kts | 154° |
| 2026-05-09 18:10 | 13.85310 | -60.02786 | 19166 ft | 411 kts | 153° |
| 2026-05-09 18:10 | 13.81962 | -60.01340 | 18616 ft | 408 kts | 153° |
| 2026-05-09 18:10 | 13.79364 | -60.00218 | 18181 ft | 406 kts | 153° |
| 2026-05-09 18:11 | 13.76779 | -59.99102 | 17729 ft | 402 kts | 153° |
| 2026-05-09 18:11 | 13.74211 | -59.97993 | 17295 ft | 398 kts | 154° |
| 2026-05-09 18:11 | 13.71672 | -59.96898 | 16890 ft | 394 kts | 154° |
| 2026-05-09 18:11 | 13.69155 | -59.95811 | 16468 ft | 391 kts | 154° |
| 2026-05-09 18:12 | 13.66681 | -59.94744 | 16116 ft | 386 kts | 154° |
| 2026-05-09 18:12 | 13.64242 | -59.93693 | 15996 ft | 374 kts | 154° |
| 2026-05-09 18:12 | 13.61913 | -59.92691 | 15917 ft | 362 kts | 155° |
| 2026-05-09 18:12 | 13.59630 | -59.91708 | 15838 ft | 350 kts | 154° |
| 2026-05-09 18:13 | 13.57417 | -59.90755 | 15766 ft | 339 kts | 154° |
| 2026-05-09 18:13 | 13.55277 | -59.89833 | 15699 ft | 329 kts | 154° |
| 2026-05-09 18:13 | 13.53195 | -59.88935 | 15565 ft | 321 kts | 154° |
| 2026-05-09 18:13 | 13.51146 | -59.88052 | 15283 ft | 319 kts | 155° |
| 2026-05-09 18:14 | 13.49115 | -59.87175 | 14846 ft | 323 kts | 155° |
| 2026-05-09 18:14 | 13.47026 | -59.86272 | 14092 ft | 334 kts | 156° |
| 2026-05-09 18:14 | 13.44898 | -59.85354 | 13312 ft | 340 kts | 156° |
| 2026-05-09 18:14 | 13.42721 | -59.84417 | 12485 ft | 345 kts | 156° |
| 2026-05-09 18:15 | 13.40499 | -59.83461 | 11666 ft | 348 kts | 156° |
| 2026-05-09 18:15 | 13.38256 | -59.82496 | 10857 ft | 350 kts | 157° |
| 2026-05-09 18:15 | 13.36006 | -59.81529 | 10075 ft | 350 kts | 157° |
| 2026-05-09 18:15 | 13.33757 | -59.80562 | 9228 ft | 350 kts | 157° |
| 2026-05-09 18:16 | 13.31543 | -59.79611 | 8401 ft | 348 kts | 156° |
| 2026-05-09 18:16 | 13.29315 | -59.78654 | 7577 ft | 346 kts | 155° |
| 2026-05-09 18:16 | 13.27107 | -59.77705 | 6784 ft | 343 kts | 156° |
| 2026-05-09 18:16 | 13.24946 | -59.76776 | 5978 ft | 341 kts | 155° |
| 2026-05-09 18:17 | 13.22760 | -59.75836 | 5152 ft | 339 kts | 155° |
| 2026-05-09 18:17 | 13.20591 | -59.74904 | 4342 ft | 336 kts | 155° |
| 2026-05-09 18:17 | 13.18649 | -59.74070 | 3788 ft | 328 kts | 155° |
| 2026-05-09 18:17 | 13.16636 | -59.73206 | 3284 ft | 318 kts | 155° |
| 2026-05-09 18:18 | 13.14636 | -59.72349 | 3098 ft | 299 kts | 155° |
| 2026-05-09 18:18 | 13.12799 | -59.71577 | 3003 ft | 279 kts | 159° |
| 2026-05-09 18:18 | 13.11052 | -59.71071 | 2997 ft | 260 kts | 164° |
| 2026-05-09 18:18 | 13.09341 | -59.70647 | 2995 ft | 248 kts | 163° |
| 2026-05-09 18:19 | 13.07719 | -59.70232 | 3008 ft | 230 kts | 162° |
| 2026-05-09 18:19 | 13.04861 | -59.69464 | 2998 ft | 201 kts | 156° |
| 2026-05-09 18:19 | 13.03836 | -59.68620 | 3006 ft | 190 kts | 114° |
| 2026-05-09 18:20 | 13.03638 | -59.67282 | 3023 ft | 194 kts | 90° |
| 2026-05-09 18:20 | 13.03596 | -59.65884 | 3016 ft | 198 kts | 88° |
| 2026-05-09 18:20 | 13.03757 | -59.64465 | 2866 ft | 202 kts | 81° |
| 2026-05-09 18:20 | 13.04032 | -59.63171 | 2633 ft | 189 kts | 77° |
| 2026-05-09 18:21 | 13.04349 | -59.61893 | 2403 ft | 175 kts | 76° |
| 2026-05-09 18:21 | 13.04637 | -59.60728 | 2171 ft | 163 kts | 76° |
| 2026-05-09 18:21 | 13.04900 | -59.59661 | 2005 ft | 146 kts | 76° |
| 2026-05-09 18:21 | 13.05144 | -59.58666 | 1798 ft | 144 kts | 77° |
| 2026-05-09 18:22 | 13.05386 | -59.57676 | 1603 ft | 143 kts | 77° |
| 2026-05-09 18:22 | 13.05625 | -59.56703 | 1399 ft | 143 kts | 77° |
| 2026-05-09 18:22 | 13.05855 | -59.55749 | 1294 ft | 145 kts | 76° |
| 2026-05-09 18:22 | 13.06082 | -59.54798 | 1119 ft | 132 kts | 77° |
| 2026-05-09 18:23 | 13.06292 | -59.53966 | 970 ft | 134 kts | 76° |
| 2026-05-09 18:23 | 13.06523 | -59.53040 | 736 ft | 134 kts | 77° |
| 2026-05-09 18:23 | 13.06751 | -59.52116 | 549 ft | 134 kts | 80° |
| 2026-05-09 18:23 | 13.06972 | -59.51205 | 335 ft | 136 kts | 79° |
| 2026-05-09 18:24 | 13.07213 | -59.50260 | 197 ft | 133 kts | 78° |
| 2026-05-09 18:24 | 13.07405 | -59.49459 | 174 ft | 101 kts | 77° |
| 2026-05-09 18:24 | 13.07509 | -59.49054 | 174 ft | 14 kts | 75° |
| 2026-05-09 18:25 | 13.07614 | -59.48916 | 175 ft | 12 kts | 45° |
| 2026-05-09 18:25 | 13.07662 | -59.48866 | 175 ft | 3 kts | 45° |
| 2026-05-09 18:25 | 13.07662 | -59.48865 | 175 ft | 0 kts | 45° |
| 2026-05-09 18:25 | 13.07664 | -59.48863 | 175 ft | 3 kts | 46° |
| 2026-05-09 18:26 | 13.07691 | -59.48835 | 175 ft | 6 kts | 46° |
| 2026-05-09 18:26 | 13.07722 | -59.48801 | 174 ft | 6 kts | 47° |
| 2026-05-09 18:26 | 13.07749 | -59.48790 | 174 ft | 3 kts | 353° |
| 2026-05-09 18:26 | 13.07771 | -59.48793 | 174 ft | 3 kts | 349° |
| 2026-05-09 18:27 | 13.07798 | -59.48801 | 174 ft | 7 kts | 345° |
| 2026-05-09 18:27 | 13.07832 | -59.48810 | 175 ft | 8 kts | 346° |
| 2026-05-09 18:27 | 13.07869 | -59.48819 | 175 ft | 0 kts | 344° |
| 2026-05-09 18:27 | 13.07872 | -59.48820 | 175 ft | 0 kts | 345° |